Time;durP1;ratioP1;P1;durP2;ratioP2;P2;SDS_P1;SDS_P2;PMS_P1;PMS_P2;Temp;Humidity;BMP_temperature;BMP_pressure;BME280_temperature;BME280_humidity;BME280_pressure;Samples;Min_cycle;Max_cycle;Signal;HPM_P1;HPM_P2
2023/05/13 00:00:22;;;;;;;;;;;;;;;-140.72;100.00;52642.47;5091477;28;19924;-74
2023/05/13 00:02:47;;;;;;;;;;;;;;;-140.72;100.00;52715.53;5086204;28;20019;-74
2023/05/13 00:05:13;;;;;;;;;;;;;;;-140.72;100.00;52687.13;5086952;28;19921;-74
2023/05/13 00:07:38;;;;;;;;;;;;;;;-140.72;100.00;52674.94;5091133;28;19928;-73
2023/05/13 00:10:03;;;;;;;;;;;;;;;-140.72;100.00;52687.13;5088771;28;19920;-73
2023/05/13 00:12:30;;;;;;;;;;;;;;;-140.72;100.00;52640.44;5092962;28;19927;-73
2023/05/13 00:14:55;;;;;;;;;;;;;;;-140.72;100.00;52676.97;5089547;28;19928;-73
2023/05/13 00:17:22;;;;;;;;;;;;;;;-140.72;100.00;52685.09;5087316;28;19994;-73
2023/05/13 00:19:47;;;;;;;;;;;;;;;-140.72;100.00;52670.88;5094293;28;19924;-73
2023/05/13 00:22:27;;;;;;;;;;;;;;;-140.72;100.00;52674.94;5089652;28;19923;-74
2023/05/13 00:24:52;;;;;;;;;;;;;;;-140.72;100.00;52697.28;5088590;28;20006;-74
2023/05/13 00:27:17;;;;;;;;;;;;;;;-140.72;100.00;52679.00;5091029;28;20030;-74
2023/05/13 00:29:42;;;;;;;;;;;;;;;-140.72;100.00;52691.19;5090412;28;19927;-73
2023/05/13 00:32:08;;;;;;;;;;;;;;;-140.72;100.00;52666.84;5091707;28;20423;-73
2023/05/13 00:34:33;;;;;;;;;;;;;;;-140.72;100.00;52670.88;5092410;28;20456;-74
2023/05/13 00:36:59;;;;;;;;;;;;;;;-140.72;100.00;52664.81;5116929;27;20366;-74
2023/05/13 00:39:25;;;;;;;;;;;;;;;-140.72;100.00;52709.44;5091971;28;20298;-73
2023/05/13 00:41:50;;;;;;;;;;;;;;;-140.72;100.00;52705.38;5094483;28;19920;-73
2023/05/13 00:44:15;;;;;;;;;;;;;;;-140.72;100.00;52674.94;5094488;28;19955;-73
2023/05/13 00:46:41;;;;;;;;;;;;;;;-140.72;100.00;52715.53;5091525;28;19935;-73
2023/05/13 00:49:06;;;;;;;;;;;;;;;-140.72;100.00;52689.16;5090325;28;19943;-74
2023/05/13 00:51:32;;;;;;;;;;;;;;;-140.72;100.00;52670.88;5090303;28;19926;-74
2023/05/13 00:54:00;;;;;;;;;;;;;;;-140.72;100.00;52660.75;5089096;28;19931;-74
2023/05/13 00:56:26;;;;;;;;;;;;;;;-140.72;100.00;52687.13;5088510;28;20401;-73
2023/05/13 00:58:51;;;;;;;;;;;;;;;-140.72;100.00;52674.94;5087757;28;19959;-73
2023/05/13 01:01:16;;;;;;;;;;;;;;;-140.72;100.00;52705.38;5090854;28;19962;-74
2023/05/13 01:03:49;;;;;;;;;;;;;;;-140.72;100.00;52648.56;5091539;28;20300;-73
2023/05/13 01:06:22;;;;;;;;;;;;;;;-140.72;100.00;52666.84;5093429;28;19928;-73
2023/05/13 01:08:50;;;;;;;;;;;;;;;-140.72;100.00;52683.06;5090955;28;19927;-74
2023/05/13 01:11:21;;;;;;;;;;;;;;;-140.72;100.00;52654.66;5095853;28;19963;-74
2023/05/13 01:13:48;;;;;;;;;;;;;;;-140.72;100.00;52689.16;5091904;28;19924;-74
2023/05/13 01:16:31;;;;;;;;;;;;;;;-140.72;100.00;52674.94;5086414;28;20406;-74
2023/05/13 01:18:58;;;;;;;;;;;;;;;-140.72;100.00;52687.13;5106364;27;19939;-73
2023/05/13 01:21:27;;;;;;;;;;;;;;;-140.72;100.00;52626.25;5088202;28;20294;-74
2023/05/13 01:23:52;;;;;;;;;;;;;;;-140.72;100.00;52672.91;5090749;28;19969;-74
2023/05/13 01:26:18;;;;;;;;;;;;;;;-140.72;100.00;52676.97;5088517;28;19924;-74
2023/05/13 01:28:43;;;;;;;;;;;;;;;-140.72;100.00;52650.59;5087231;28;19930;-74
2023/05/13 01:31:09;;;;;;;;;;;;;;;-140.72;100.00;52656.69;5089800;28;19920;-73
2023/05/13 01:33:35;;;;;;;;;;;;;;;-140.72;100.00;52658.72;5088597;28;20320;-73
2023/05/13 01:36:01;;;;;;;;;;;;;;;-140.72;100.00;52679.00;5090256;28;20007;-74
2023/05/13 01:38:27;;;;;;;;;;;;;;;-140.72;100.00;52681.03;5092921;28;20356;-74
2023/05/13 01:40:53;;;;;;;;;;;;;;;-140.72;100.00;52689.16;5085595;28;19920;-74
2023/05/13 01:43:18;;;;;;;;;;;;;;;-140.72;100.00;52687.13;5090393;28;20350;-73
2023/05/13 01:45:44;;;;;;;;;;;;;;;-140.72;100.00;52691.19;5088280;28;19924;-74
2023/05/13 01:48:09;;;;;;;;;;;;;;;-140.72;100.00;52679.00;5088109;28;19924;-74
2023/05/13 01:50:34;;;;;;;;;;;;;;;-140.72;100.00;52687.13;5090319;28;19928;-74
2023/05/13 01:52:59;;;;;;;;;;;;;;;-140.72;100.00;52693.22;5089107;28;19920;-74
2023/05/13 01:55:26;;;;;;;;;;;;;;;-140.72;100.00;52695.25;5089724;28;19920;-73
2023/05/13 01:57:51;;;;;;;;;;;;;;;-140.72;100.00;52666.84;5090063;28;19923;-74
2023/05/13 02:00:16;;;;;;;;;;;;;;;-140.72;100.00;52717.56;5086829;28;19928;-74
2023/05/13 02:02:41;;;;;;;;;;;;;;;-140.72;100.00;52715.53;5090520;28;20455;-74
2023/05/13 02:05:07;;;;;;;;;;;;;;;-140.72;100.00;52723.66;5088861;28;19932;-73
2023/05/13 02:07:33;;;;;;;;;;;;;;;-140.72;100.00;52725.69;5087794;28;19928;-74
2023/05/13 02:09:58;;;;;;;;;;;;;;;-140.72;100.00;52707.41;5088977;28;20363;-74
2023/05/13 02:12:27;;;;;;;;;;;;;;;-140.72;100.00;52731.75;5089514;28;19920;-74
2023/05/13 02:14:53;;;;;;;;;;;;;;;-140.72;100.00;52727.72;5087516;28;20015;-74
2023/05/13 02:17:19;;;;;;;;;;;;;;;-140.72;100.00;52727.72;5084205;28;20039;-73
2023/05/13 02:19:44;;;;;;;;;;;;;;;-140.72;100.00;52719.59;5089200;28;19973;-73
2023/05/13 02:22:09;;;;;;;;;;;;;;;-140.72;100.00;52711.47;5088669;28;19920;-73
2023/05/13 02:24:38;;;;;;;;;;;;;;;-140.72;100.00;52707.41;5089049;28;19920;-73
2023/05/13 02:27:04;;;;;;;;;;;;;;;-140.72;100.00;52752.06;5088047;28;19953;-74
2023/05/13 02:29:29;;;;;;;;;;;;;;;-140.72;100.00;52687.13;5089391;28;19928;-73
2023/05/13 02:31:54;;;;;;;;;;;;;;;-140.72;100.00;52739.88;5084673;28;19920;-73
2023/05/13 02:34:20;;;;;;;;;;;;;;;-140.72;100.00;52719.59;5085193;28;19920;-73
2023/05/13 02:36:45;;;;;;;;;;;;;;;-140.72;100.00;52776.41;5085224;28;19928;-74
2023/05/13 02:39:10;;;;;;;;;;;;;;;-140.72;100.00;52733.78;5114889;27;20378;-73
2023/05/13 02:41:36;;;;;;;;;;;;;;;-140.72;100.00;52764.25;5086565;28;19920;-73
2023/05/13 02:44:01;;;;;;;;;;;;;;;-140.72;100.00;52768.28;5091410;28;20336;-73
2023/05/13 02:46:26;;;;;;;;;;;;;;;-140.72;100.00;52737.84;5081884;28;19931;-73
2023/05/13 02:48:51;;;;;;;;;;;;;;;-140.72;100.00;52762.22;5090803;28;19973;-74
2023/05/13 02:51:16;;;;;;;;;;;;;;;-140.72;100.00;52723.66;5086403;28;19927;-74
2023/05/13 02:53:42;;;;;;;;;;;;;;;-140.72;100.00;52756.13;5087943;28;20631;-73
2023/05/13 02:56:07;;;;;;;;;;;;;;;-140.72;100.00;52756.13;5089118;28;20394;-73
2023/05/13 02:58:33;;;;;;;;;;;;;;;-140.72;100.00;52768.28;5090634;28;19947;-73
2023/05/13 03:00:58;;;;;;;;;;;;;;;-140.72;100.00;52743.94;5085721;28;20002;-74
2023/05/13 03:03:23;;;;;;;;;;;;;;;-140.72;100.00;52752.06;5083594;28;20019;-73
2023/05/13 03:05:49;;;;;;;;;;;;;;;-140.72;100.00;52784.53;5088974;28;19987;-73
2023/05/13 03:08:14;;;;;;;;;;;;;;;-140.72;100.00;52788.59;5084542;28;19943;-74
2023/05/13 03:10:40;;;;;;;;;;;;;;;-140.72;100.00;52786.56;5090646;28;19970;-73
2023/05/13 03:13:05;;;;;;;;;;;;;;;-140.72;100.00;52780.47;5090273;28;19931;-73
2023/05/13 03:15:30;;;;;;;;;;;;;;;-140.72;100.00;52731.75;5080456;28;19928;-72
2023/05/13 03:17:56;;;;;;;;;;;;;;;-140.72;100.00;52790.63;5089148;28;19924;-73
2023/05/13 03:20:21;;;;;;;;;;;;;;;-140.72;100.00;52748.00;5086996;28;19981;-72
2023/05/13 03:22:47;;;;;;;;;;;;;;;-140.72;100.00;52780.47;5087710;28;20366;-73
2023/05/13 03:25:12;;;;;;;;;;;;;;;-140.72;100.00;52745.97;5092108;28;20349;-72
2023/05/13 03:27:37;;;;;;;;;;;;;;;-140.72;100.00;52788.59;5088022;28;21219;-72
2023/05/13 03:30:03;;;;;;;;;;;;;;;-140.72;100.00;52768.28;5087106;28;19920;-73
2023/05/13 03:32:30;;;;;;;;;;;;;;;-140.72;100.00;52768.28;5089360;28;19920;-73
2023/05/13 03:34:56;;;;;;;;;;;;;;;-140.72;100.00;52790.63;5091907;28;19920;-72
2023/05/13 03:37:21;;;;;;;;;;;;;;;-140.72;100.00;52788.59;5088417;28;19920;-73
2023/05/13 03:39:47;;;;;;;;;;;;;;;-140.72;100.00;52760.19;5085805;28;20271;-73
2023/05/13 03:42:12;;;;;;;;;;;;;;;-140.72;100.00;52808.88;5090399;28;19951;-73
2023/05/13 03:44:37;;;;;;;;;;;;;;;-140.72;100.00;52768.28;5089366;28;20298;-72
2023/05/13 03:47:02;;;;;;;;;;;;;;;-140.72;100.00;52790.63;5087185;28;20399;-73
2023/05/13 03:49:28;;;;;;;;;;;;;;;-140.72;100.00;52766.25;5089370;28;20008;-73
2023/05/13 03:51:53;;;;;;;;;;;;;;;-140.72;100.00;52778.44;5082543;28;19947;-73
2023/05/13 03:54:18;;;;;;;;;;;;;;;-140.72;100.00;52778.44;5089681;28;19951;-73
2023/05/13 03:56:43;;;;;;;;;;;;;;;-140.72;100.00;52752.06;5088693;28;19931;-73
2023/05/13 03:59:08;;;;;;;;;;;;;;;-140.72;100.00;52780.47;5085875;28;20399;-73
2023/05/13 04:01:34;;;;;;;;;;;;;;;-140.72;100.00;52796.72;5091669;28;19927;-73
2023/05/13 04:04:00;;;;;;;;;;;;;;;-140.72;100.00;52760.19;5085843;28;19919;-73
2023/05/13 04:06:25;;;;;;;;;;;;;;;-140.72;100.00;52756.13;5084076;28;20046;-73
2023/05/13 04:08:50;;;;;;;;;;;;;;;-140.72;100.00;52776.41;5084356;28;20019;-73
2023/05/13 04:11:15;;;;;;;;;;;;;;;-140.72;100.00;52782.50;5090108;28;20028;-73
2023/05/13 04:13:42;;;;;;;;;;;;;;;-140.72;100.00;52780.47;5088005;28;20398;-73
2023/05/13 04:16:07;;;;;;;;;;;;;;;-140.72;100.00;52752.06;5087793;28;19931;-73
2023/05/13 04:18:33;;;;;;;;;;;;;;;-140.72;100.00;52768.28;5085896;28;20371;-73
2023/05/13 04:20:58;;;;;;;;;;;;;;;-140.72;100.00;52780.47;5088055;28;20634;-73
2023/05/13 04:23:23;;;;;;;;;;;;;;;-140.72;100.00;52786.56;5090061;28;19920;-79
2023/05/13 04:25:52;;;;;;;;;;;;;;;-140.72;100.00;52800.75;5097722;28;19931;-77
2023/05/13 04:28:17;;;;;;;;;;;;;;;-140.72;100.00;52788.59;5090669;28;19963;-77
2023/05/13 04:30:43;;;;;;;;;;;;;;;-140.72;100.00;52780.47;5093606;28;19963;-75
2023/05/13 04:33:08;;;;;;;;;;;;;;;-140.72;100.00;52762.22;5096400;28;20401;-76
2023/05/13 04:35:33;;;;;;;;;;;;;;;-140.72;100.00;52814.97;5085496;28;20370;-74
2023/05/13 04:37:58;;;;;;;;;;;;;;;-140.72;100.00;52772.34;5088750;28;19924;-75
2023/05/13 04:40:25;;;;;;;;;;;;;;;-140.72;100.00;52792.66;5093512;28;20014;-78
2023/05/13 04:42:53;;;;;;;;;;;;;;;-140.72;100.00;52804.81;5087814;28;20298;-75
2023/05/13 04:45:18;;;;;;;;;;;;;;;-140.72;100.00;52774.38;5092250;28;20404;-73
2023/05/13 04:47:44;;;;;;;;;;;;;;;-140.72;100.00;52786.56;5087095;28;19925;-73
2023/05/13 04:50:09;;;;;;;;;;;;;;;-140.72;100.00;52768.28;5096206;28;19971;-73
2023/05/13 04:52:36;;;;;;;;;;;;;;;-140.72;100.00;52754.09;5094400;28;19972;-73
2023/05/13 04:55:01;;;;;;;;;;;;;;;-140.72;100.00;52768.28;5097305;28;19920;-74
2023/05/13 04:57:26;;;;;;;;;;;;;;;-140.72;100.00;52776.41;5089025;28;20319;-73
2023/05/13 04:59:51;;;;;;;;;;;;;;;-140.72;100.00;52790.63;5101317;28;20381;-73
2023/05/13 05:02:17;;;;;;;;;;;;;;;-140.72;100.00;52782.50;5092130;28;20428;-73
2023/05/13 05:04:43;;;;;;;;;;;;;;;-140.72;100.00;52766.25;5094743;28;20090;-73
2023/05/13 05:07:08;;;;;;;;;;;;;;;-140.72;100.00;52784.53;5087563;28;19927;-73
2023/05/13 05:09:33;;;;;;;;;;;;;;;-140.72;100.00;52756.13;5097091;28;19930;-73
2023/05/13 05:11:59;;;;;;;;;;;;;;;-140.72;100.00;52796.72;5098209;28;20022;-72
2023/05/13 05:14:24;;;;;;;;;;;;;;;-140.72;100.00;52784.53;5113232;27;19986;-73
2023/05/13 05:16:49;;;;;;;;;;;;;;;-140.72;100.00;52741.91;5094536;28;20287;-73
2023/05/13 05:19:14;;;;;;;;;;;;;;;-140.72;100.00;52745.97;5097695;28;20259;-73
2023/05/13 05:21:40;;;;;;;;;;;;;;;-140.72;100.00;52768.28;5092244;28;19920;-75
2023/05/13 05:24:05;;;;;;;;;;;;;;;-140.72;100.00;52750.03;5098995;28;19924;-74
2023/05/13 05:26:30;;;;;;;;;;;;;;;-140.72;100.00;52748.00;5095041;28;19920;-77
2023/05/13 05:28:56;;;;;;;;;;;;;;;-140.72;100.00;52754.09;5099071;28;19920;-85
2023/05/13 05:31:21;;;;;;;;;;;;;;;-140.72;100.00;52758.16;5095453;28;19941;-72
2023/05/13 05:33:46;;;;;;;;;;;;;;;-140.72;100.00;52821.06;5093153;28;20011;-72
2023/05/13 05:36:11;;;;;;;;;;;;;;;-140.72;100.00;52798.72;5092188;28;19916;-72
2023/05/13 05:38:37;;;;;;;;;;;;;;;-140.72;100.00;52778.44;5095748;28;20002;-73
2023/05/13 05:41:02;;;;;;;;;;;;;;;-140.72;100.00;52760.19;5100791;28;20025;-73
2023/05/13 05:43:27;;;;;;;;;;;;;;;-140.72;100.00;52798.72;5091881;28;19921;-73
2023/05/13 05:45:52;;;;;;;;;;;;;;;-140.72;100.00;52766.25;5094643;28;19920;-73
2023/05/13 05:48:18;;;;;;;;;;;;;;;-140.72;100.00;52748.00;5093313;28;19916;-73
2023/05/13 05:50:43;;;;;;;;;;;;;;;-140.72;100.00;52758.16;5092012;28;19931;-74
2023/05/13 05:53:08;;;;;;;;;;;;;;;-140.72;100.00;52770.31;5092952;28;19916;-73
2023/05/13 05:55:33;;;;;;;;;;;;;;;-140.72;100.00;52780.47;5078273;28;19920;-73
2023/05/13 05:58:04;;;;;;;;;;;;;;;-140.72;100.00;52756.13;5089434;28;19923;-73
2023/05/13 06:00:29;;;;;;;;;;;;;;;-140.72;100.00;52780.47;5090512;28;20009;-73
2023/05/13 06:02:55;;;;;;;;;;;;;;;-140.72;100.00;52752.06;5081708;28;20126;-73
2023/05/13 06:05:21;;;;;;;;;;;;;;;-140.72;100.00;52741.91;5084749;28;20481;-73
2023/05/13 06:07:46;;;;;;;;;;;;;;;-140.72;100.00;52743.94;5087229;28;19962;-73
2023/05/13 06:10:11;;;;;;;;;;;;;;;-140.72;100.00;52687.13;5084157;28;19920;-73
2023/05/13 06:12:36;;;;;;;;;;;;;;;-140.72;100.00;52729.75;5099004;28;20396;-73
2023/05/13 06:15:05;;;;;;;;;;;;;;;-140.72;100.00;52715.53;5095912;28;20398;-73
2023/05/13 06:17:30;;;;;;;;;;;;;;;-140.72;100.00;52713.50;5095781;28;19923;-74
2023/05/13 06:19:55;;;;;;;;;;;;;;;-140.72;100.00;52750.03;5098304;28;19973;-73
2023/05/13 06:22:20;;;;;;;;;;;;;;;-140.72;100.00;52739.88;5099314;28;19916;-73
2023/05/13 06:24:46;;;;;;;;;;;;;;;-140.72;100.00;52715.53;5095172;28;19943;-72
2023/05/13 06:27:11;;;;;;;;;;;;;;;-140.72;100.00;52739.88;5096055;28;19915;-73
2023/05/13 06:29:36;;;;;;;;;;;;;;;-140.72;100.00;52733.78;5109247;28;19978;-73
2023/05/13 06:32:02;;;;;;;;;;;;;;;-140.72;100.00;52687.13;5101625;28;20023;-73
2023/05/13 06:34:27;;;;;;;;;;;;;;;-140.72;100.00;52658.72;5093442;28;19920;-73
2023/05/13 06:36:52;;;;;;;;;;;;;;;-140.72;100.00;52739.88;5095593;28;19915;-73
2023/05/13 06:39:18;;;;;;;;;;;;;;;-140.72;100.00;52715.53;5107478;28;19915;-73
2023/05/13 06:41:43;;;;;;;;;;;;;;;-140.72;100.00;52687.13;5086960;28;19920;-74
2023/05/13 06:44:08;;;;;;;;;;;;;;;-140.72;100.00;52683.06;5074465;28;19917;-74
2023/05/13 06:46:33;;;;;;;;;;;;;;;-140.72;100.00;52689.16;5078145;28;19927;-73
2023/05/13 06:48:59;;;;;;;;;;;;;;;-140.72;100.00;52699.31;5088996;28;20282;-73
2023/05/13 06:51:26;;;;;;;;;;;;;;;-140.72;100.00;52695.25;5090742;28;19920;-73
2023/05/13 06:53:51;;;;;;;;;;;;;;;-140.72;100.00;52687.13;5092386;28;20375;-74
2023/05/13 06:56:16;;;;;;;;;;;;;;;-140.72;100.00;52670.88;5090849;28;20073;-73
2023/05/13 06:58:42;;;;;;;;;;;;;;;-140.72;100.00;52699.31;5084922;28;19916;-74
2023/05/13 07:01:07;;;;;;;;;;;;;;;-140.72;100.00;52674.94;5083967;28;19945;-73
2023/05/13 07:03:32;;;;;;;;;;;;;;;-140.72;100.00;52676.97;5090901;28;20393;-73
2023/05/13 07:05:57;;;;;;;;;;;;;;;-140.72;100.00;52679.00;5088910;28;20267;-74
2023/05/13 07:08:22;;;;;;;;;;;;;;;-140.72;100.00;52668.84;5111740;28;20358;-73
2023/05/13 07:10:48;;;;;;;;;;;;;;;-140.72;100.00;52715.53;5101330;28;20386;-73
2023/05/13 07:13:13;;;;;;;;;;;;;;;-140.72;100.00;52650.59;5095976;27;20374;-73
2023/05/13 07:15:38;;;;;;;;;;;;;;;-140.72;100.00;52642.47;5090938;28;19920;-73
2023/05/13 07:18:03;;;;;;;;;;;;;;;-140.72;100.00;52693.22;5085457;28;20392;-73
2023/05/13 07:20:29;;;;;;;;;;;;;;;-140.72;100.00;52638.41;5099191;28;19970;-74
2023/05/13 07:22:54;;;;;;;;;;;;;;;-140.72;100.00;52654.66;5089286;28;19916;-73
2023/05/13 07:25:19;;;;;;;;;;;;;;;-140.72;100.00;52656.69;5089028;28;19920;-73
2023/05/13 07:27:45;;;;;;;;;;;;;;;-140.72;100.00;52654.66;5103923;28;19920;-74
2023/05/13 07:30:11;;;;;;;;;;;;;;;-140.72;100.00;52656.69;5084233;28;19923;-74
2023/05/13 07:32:36;;;;;;;;;;;;;;;-140.72;100.00;52648.56;5091513;28;19920;-74
2023/05/13 07:35:03;;;;;;;;;;;;;;;-140.72;100.00;52646.53;5092293;28;20135;-73
2023/05/13 07:37:28;;;;;;;;;;;;;;;-140.72;100.00;52640.44;5102724;28;19920;-74
2023/05/13 07:39:53;;;;;;;;;;;;;;;-140.72;100.00;52626.25;5085374;28;20011;-74
2023/05/13 07:42:18;;;;;;;;;;;;;;;-140.72;100.00;52624.22;5087517;28;19956;-74
2023/05/13 07:44:44;;;;;;;;;;;;;;;-140.72;86.35;52616.09;5078461;28;20409;-74
2023/05/13 07:47:09;;;;;;;;;;;;;;;-140.72;64.06;52630.31;5086556;28;19927;-74
2023/05/13 07:49:34;;;;;;;;;;;;;;;-140.72;43.78;52618.13;5079760;28;20389;-73
2023/05/13 07:52:00;;;;;;;;;;;;;;;-140.72;45.44;52616.09;5090496;28;19931;-75
2023/05/13 07:54:25;;;;;;;;;;;;;;;-140.72;21.13;52595.81;5090856;28;19920;-75
2023/05/13 08:00:04;;;;;;;;;;;;;;;-140.72;0.83;52593.78;5075523;28;19920;-75
2023/05/13 08:02:33;;;;;;;;;;;;;;;-140.72;5.48;52589.72;5086510;28;19916;-73
2023/05/13 08:05:26;;;;;;;;;;;;;;;-140.72;0.00;52532.91;5074645;28;20007;-73
2023/05/13 08:07:51;;;;;;;;;;;;;;;-140.72;0.00;52610.00;5081915;28;19920;-74
2023/05/13 08:10:16;;;;;;;;;;;;;;;-140.72;0.00;52543.03;5087287;28;19920;-74
2023/05/13 08:12:42;;;;;;;;;;;;;;;-140.72;0.00;52545.06;5089872;28;19990;-73
2023/05/13 08:15:08;;;;;;;;;;;;;;;-140.72;0.00;52563.34;5088981;28;19935;-73
2023/05/13 08:17:34;;;;;;;;;;;;;;;-140.72;0.00;52549.13;5096113;28;19965;-73
2023/05/13 08:23:07;;;;;;;;;;;;;;;-140.72;0.00;52508.56;5090258;28;19970;-73
2023/05/13 08:25:32;;;;;;;;;;;;;;;-140.72;0.00;52557.25;5099204;28;19916;-75
2023/05/13 08:27:57;;;;;;;;;;;;;;;-140.72;0.00;52528.84;5100459;28;20401;-77
2023/05/13 08:30:23;;;;;;;;;;;;;;;-140.72;0.00;52510.59;5099368;28;19932;-78
2023/05/13 08:32:48;;;;;;;;;;;;;;;-140.72;0.00;52486.22;5105477;28;19964;-77
2023/05/13 08:35:13;;;;;;;;;;;;;;;-140.72;0.00;52488.25;5094469;28;19920;-77
2023/05/13 08:37:38;;;;;;;;;;;;;;;-140.72;0.00;52463.91;5095337;28;19924;-78
2023/05/13 08:40:04;;;;;;;;;;;;;;;-140.72;0.00;52467.97;5097514;28;19972;-78
2023/05/13 08:42:36;;;;;;;;;;;;;;;-140.72;0.00;52492.31;5099791;28;19959;-78
2023/05/13 08:45:03;;;;;;;;;;;;;;;-140.72;0.00;52463.91;5099692;28;20031;-78
2023/05/13 08:47:42;;;;;;;;;;;;;;;-140.72;0.00;52447.69;5116318;27;19924;-78
2023/05/13 08:50:09;;;;;;;;;;;;;;;-140.72;0.00;52439.56;5090262;28;19974;-77
2023/05/13 08:52:34;;;;;;;;;;;;;;;-140.72;0.00;52421.28;5093608;28;19927;-76
2023/05/13 08:55:00;;;;;;;;;;;;;;;-140.72;0.00;52417.25;5098891;28;19920;-79
2023/05/13 08:57:26;;;;;;;;;;;;;;;-140.72;0.00;52421.28;5093572;28;20428;-74
2023/05/13 08:59:51;;;;;;;;;;;;;;;-140.72;0.00;52388.84;5095817;28;19920;-77
2023/05/13 09:02:17;;;;;;;;;;;;;;;-140.72;0.00;52425.34;5100369;28;19928;-75
2023/05/13 09:04:45;;;;;;;;;;;;;;;-140.72;0.00;52358.41;5081899;28;19920;-76
2023/05/13 09:07:10;;;;;;;;;;;;;;;-140.72;0.00;52358.41;5090751;28;19920;-74
2023/05/13 09:09:36;;;;;;;;;;;;;;;-140.72;0.00;52378.69;5096551;28;19966;-77
2023/05/13 09:12:02;;;;;;;;;;;;;;;-140.72;0.00;52382.75;5105371;28;19980;-76
2023/05/13 09:14:33;;;;;;;;;;;;;;;-140.72;0.00;52311.72;5092554;28;19928;-75
2023/05/13 09:17:00;;;;;;;;;;;;;;;-140.72;0.00;52338.09;5095121;28;19920;-75
2023/05/13 09:19:25;;;;;;;;;;;;;;;-140.72;0.00;52285.34;5091186;28;20371;-75
2023/05/13 09:21:51;;;;;;;;;;;;;;;-140.72;0.00;52285.34;5091649;28;19927;-75
2023/05/13 09:24:17;;;;;;;;;;;;;;;-140.72;0.00;52273.19;5088912;28;19924;-76
2023/05/13 09:26:43;;;;;;;;;;;;;;;-140.72;0.00;52256.94;5086200;28;20359;-74
2023/05/13 09:29:15;;;;;;;;;;;;;;;-140.72;0.00;52289.41;5092363;28;20007;-76
2023/05/13 09:31:40;;;;;;;;;;;;;;;-140.72;0.00;52271.16;5092330;28;19924;-76
2023/05/13 09:34:06;;;;;;;;;;;;;;;-140.72;0.00;52220.41;5093708;28;19965;-75
2023/05/13 09:36:31;;;;;;;;;;;;;;;-140.72;0.00;52222.44;5097833;28;19970;-78
2023/05/13 09:38:58;;;;;;;;;;;;;;;-140.72;0.00;52196.06;5093256;28;20395;-75
2023/05/13 09:41:25;;;;;;;;;;;;;;;-140.72;0.00;52179.84;5091868;28;20310;-77
2023/05/13 09:43:51;;;;;;;;;;;;;;;-140.72;0.00;52212.31;5088086;28;19920;-76
2023/05/13 09:46:16;;;;;;;;;;;;;;;-140.72;0.00;52200.13;5095032;28;20003;-76
2023/05/13 09:48:42;;;;;;;;;;;;;;;-140.72;0.00;52171.72;5088578;28;19963;-76
2023/05/13 09:51:08;;;;;;;;;;;;;;;-140.72;0.00;52171.72;5093851;28;20507;-76
2023/05/13 09:53:33;;;;;;;;;;;;;;;-140.72;0.00;52151.44;5094044;28;20003;-76
2023/05/13 09:56:00;;;;;;;;;;;;;;;-140.72;0.00;52102.75;5091320;28;19923;-76
2023/05/13 09:58:29;;;;;;;;;;;;;;;-140.72;0.00;52175.78;5083943;28;20010;-77
2023/05/13 10:00:55;;;;;;;;;;;;;;;-140.72;0.00;52127.09;5089323;28;20387;-76
2023/05/13 10:03:20;;;;;;;;;;;;;;;-140.72;0.00;52106.78;5083702;28;20061;-76
2023/05/13 10:05:47;;;;;;;;;;;;;;;-140.72;0.00;52094.63;5087614;28;19920;-76
2023/05/13 10:08:13;;;;;;;;;;;;;;;-140.72;0.00;52082.44;5082999;28;19928;-76
2023/05/13 10:10:39;;;;;;;;;;;;;;;-140.72;0.00;52096.66;5084755;28;19932;-77
2023/05/13 10:13:07;;;;;;;;;;;;;;;-140.72;0.00;52106.78;5085425;28;19916;-77
2023/05/13 10:15:35;;;;;;;;;;;;;;;-140.72;0.00;52039.84;5090118;28;20374;-76
2023/05/13 10:18:00;;;;;;;;;;;;;;;-140.72;0.00;52003.31;5089624;28;19989;-76
2023/05/13 10:20:26;;;;;;;;;;;;;;;-140.72;0.00;52045.94;5089640;28;19961;-78
2023/05/13 10:22:52;;;;;;;;;;;;;;;-140.72;0.00;52045.94;5100339;28;19923;-76
2023/05/13 10:25:17;;;;;;;;;;;;;;;-140.72;0.00;52068.25;5098128;28;19917;-78
2023/05/13 10:27:43;;;;;;;;;;;;;;;-140.72;0.00;52031.72;5096335;28;19928;-76
2023/05/13 10:30:09;;;;;;;;;;;;;;;-140.72;0.00;52013.47;5088327;28;19921;-75
2023/05/13 10:32:36;;;;;;;;;;;;;;;-140.72;0.00;51954.63;5091538;28;19947;-75
2023/05/13 10:35:13;;;;;;;;;;;;;;;-140.72;0.00;51997.22;5090805;28;19924;-77
2023/05/13 10:38:04;;;;;;;;;;;;;;;-140.72;0.00;52017.53;5099021;28;19916;-75
2023/05/13 10:40:32;;;;;;;;;;;;;;;-140.72;0.00;52001.28;5083891;28;19927;-74
2023/05/13 10:43:17;;;;;;;;;;;;;;;-140.72;0.00;51987.09;5093611;28;19923;-74
2023/05/13 10:45:48;;;;;;;;;;;;;;;-140.72;0.00;52007.38;5085616;28;20366;-74
2023/05/13 10:48:15;;;;;;;;;;;;;;;-140.72;0.00;51968.81;5087979;28;19941;-74
2023/05/13 10:50:53;;;;;;;;;;;;;;;-140.72;0.00;51942.44;5090944;28;20046;-75
2023/05/13 10:53:27;;;;;;;;;;;;;;;-140.72;0.00;51960.72;5088849;28;19975;-78
2023/05/13 10:55:56;;;;;;;;;;;;;;;-140.72;0.00;51936.38;5093057;28;20049;-78
2023/05/13 10:58:27;;;;;;;;;;;;;;;-140.72;0.00;51948.53;5121933;27;19920;-81
2023/05/13 11:01:10;;;;;;;;;;;;;;;-140.72;0.00;51938.41;5089804;28;19916;-77
2023/05/13 11:03:38;;;;;;;;;;;;;;;-140.72;0.00;51916.06;5098073;28;20011;-79
2023/05/13 11:06:18;;;;;;;;;;;;;;;-140.72;0.00;51970.84;5091802;28;19928;-79
2023/05/13 11:08:44;;;;;;;;;;;;;;;-140.72;0.00;51891.72;5090303;28;19928;-78
2023/05/13 11:11:18;;;;;;;;;;;;;;;-140.72;0.00;51940.41;5086234;28;19928;-78
2023/05/13 11:13:43;;;;;;;;;;;;;;;-140.72;0.00;51910.00;5095286;28;19920;-79
2023/05/13 11:16:11;;;;;;;;;;;;;;;-140.72;0.00;51946.50;5090401;28;19969;-79
2023/05/13 11:18:37;;;;;;;;;;;;;;;-140.72;0.00;51910.00;5121330;27;19920;-77
2023/05/13 11:21:03;;;;;;;;;;;;;;;-140.72;0.00;51891.72;5083596;28;19928;-77
2023/05/13 11:23:28;;;;;;;;;;;;;;;-140.72;0.00;51838.97;5091907;28;19923;-77
2023/05/13 11:26:23;;;;;;;;;;;;;;;-140.72;0.00;51877.53;5089087;28;20748;-77
2023/05/13 11:29:17;;;;;;;;;;;;;;;-140.72;0.00;51818.69;5080609;28;19920;-76
2023/05/13 11:31:51;;;;;;;;;;;;;;;-140.72;0.00;51859.28;5102884;28;20413;-77
2023/05/13 11:34:23;;;;;;;;;;;;;;;-140.72;0.00;51861.28;5090905;28;19924;-77
2023/05/13 11:36:50;;;;;;;;;;;;;;;-140.72;0.00;51824.78;5106753;27;19956;-77
2023/05/13 11:39:16;;;;;;;;;;;;;;;-140.72;0.00;51851.16;5086846;28;19920;-77
2023/05/13 11:45:01;;;;;;;;;;;;;;;-140.72;0.00;51851.16;5086149;28;20377;-77
2023/05/13 11:47:52;;;;;;;;;;;;;;;-140.72;0.00;51816.66;5085896;28;19991;-77
2023/05/13 11:50:22;;;;;;;;;;;;;;;-140.72;0.00;51822.75;5089228;28;19921;-77
2023/05/13 11:52:51;;;;;;;;;;;;;;;-140.72;0.00;51814.63;5092273;28;19927;-77
2023/05/13 11:55:26;;;;;;;;;;;;;;;-140.72;0.00;51853.19;5089354;28;19927;-76
2023/05/13 11:57:51;;;;;;;;;;;;;;;-140.72;0.00;51824.78;5116658;28;20275;-77
2023/05/13 12:00:16;;;;;;;;;;;;;;;-140.72;0.00;51772.03;5087229;28;19923;-77
2023/05/13 12:02:44;;;;;;;;;;;;;;;-140.72;0.00;51810.56;5091377;28;19956;-77
2023/05/13 12:05:10;;;;;;;;;;;;;;;-140.72;0.00;51765.94;5092308;28;19920;-76
2023/05/13 12:07:36;;;;;;;;;;;;;;;-140.72;0.00;51782.16;5087176;28;20548;-76
2023/05/13 12:10:02;;;;;;;;;;;;;;;-140.72;0.00;51824.78;5097817;28;19920;-76
2023/05/13 12:12:29;;;;;;;;;;;;;;;-140.72;0.00;51784.19;5093390;28;20374;-76
2023/05/13 12:14:55;;;;;;;;;;;;;;;-140.72;0.00;51792.31;5097887;28;19921;-76
2023/05/13 12:17:20;;;;;;;;;;;;;;;-140.72;0.00;51802.47;5095166;28;19923;-76
2023/05/13 12:20:05;;;;;;;;;;;;;;;-140.72;0.00;51782.16;5089672;28;19916;-77
2023/05/13 12:22:51;;;;;;;;;;;;;;;-140.72;0.00;51765.94;5101183;28;20341;-77
2023/05/13 12:25:35;;;;;;;;;;;;;;;-140.72;0.00;51822.75;5091629;28;20346;-77
2023/05/13 12:28:10;;;;;;;;;;;;;;;-140.72;0.00;51774.06;5094240;28;19959;-78
2023/05/13 12:30:37;;;;;;;;;;;;;;;-140.72;0.00;51745.66;5095786;28;19931;-78